createdAt,value
2023-02-03T00:02:55.950Z,7.50
2023-02-03T00:06:02.293Z,8.98
2023-02-03T00:09:08.290Z,7.50
2023-02-03T00:12:11.600Z,11.63
2023-02-03T00:15:15.277Z,12.48
2023-02-03T00:18:19.029Z,17.08
2023-02-03T00:21:22.069Z,6.43
2023-02-03T00:24:25.135Z,7.63
2023-02-03T00:27:29.039Z,7.05
2023-02-03T00:30:34.700Z,5.53
2023-02-03T00:33:39.959Z,5.72
2023-02-03T00:36:44.011Z,11.18
2023-02-03T00:39:48.070Z,8.18
2023-02-03T00:42:51.894Z,7.47
2023-02-03T00:45:55.607Z,7.93
2023-02-03T00:48:59.107Z,7.95
2023-02-03T00:52:02.451Z,5.95
2023-02-03T00:55:07.426Z,6.28
2023-02-03T00:58:11.095Z,8.30
2023-02-03T01:01:14.908Z,9.10
2023-02-03T01:04:19.372Z,6.75
2023-02-03T01:07:23.094Z,11.32
2023-02-03T01:10:26.543Z,15.45
2023-02-03T01:13:29.707Z,13.75
2023-02-03T01:16:37.150Z,11.70
2023-02-03T01:19:40.083Z,14.38
2023-02-03T01:22:44.346Z,7.75
2023-02-03T01:25:48.013Z,10.95
2023-02-03T01:28:57.817Z,10.75
2023-02-03T01:32:01.312Z,13.13
2023-02-03T01:35:05.427Z,11.10
2023-02-03T01:38:11.885Z,10.32
2023-02-03T01:41:20.912Z,24.27
2023-02-03T01:44:48.214Z,12.23
2023-02-03T01:47:56.741Z,18.00
2023-02-03T01:51:03.271Z,30.08
2023-02-03T01:54:08.048Z,41.07
2023-02-03T01:57:18.116Z,14.98
2023-02-03T02:00:21.344Z,23.00
2023-02-03T02:03:31.940Z,12.88
2023-02-03T02:06:35.611Z,6.72
2023-02-03T02:09:40.722Z,26.75
2023-02-03T02:12:44.580Z,13.07
2023-02-03T02:16:12.035Z,10.75
2023-02-03T02:19:52.492Z,16.90
2023-02-03T02:23:27.483Z,12.90
2023-02-03T02:26:49.699Z,9.80
2023-02-03T02:30:03.301Z,12.32
2023-02-03T02:33:12.741Z,11.05
2023-02-03T02:36:34.397Z,11.52
2023-02-03T02:40:03.621Z,7.90
2023-02-03T02:43:16.784Z,14.45
2023-02-03T02:46:39.994Z,11.48
2023-02-03T02:49:59.397Z,17.20
2023-02-03T02:53:04.726Z,11.98
2023-02-03T02:56:12.066Z,26.42
2023-02-03T03:02:19.978Z,12.25
2023-02-03T03:05:24.845Z,11.07
2023-02-03T03:08:37.247Z,15.70
2023-02-03T03:12:02.704Z,21.55
2023-02-03T03:15:16.457Z,17.33
2023-02-03T03:18:36.815Z,12.40
2023-02-03T03:21:48.911Z,13.15
2023-02-03T03:25:00.795Z,8.20
2023-02-03T03:28:12.740Z,15.98
2023-02-03T03:31:19.147Z,10.80
2023-02-03T03:34:22.374Z,21.63
2023-02-03T03:37:39.137Z,19.55
2023-02-03T03:43:49.303Z,12.07
2023-02-03T03:47:04.666Z,19.63
2023-02-03T03:50:13.314Z,17.75
2023-02-03T03:53:18.576Z,17.30
2023-02-03T03:56:47.357Z,21.10
2023-02-03T03:59:52.428Z,23.05
2023-02-03T04:02:59.024Z,23.52
2023-02-03T04:06:03.706Z,17.42
2023-02-03T04:09:07.453Z,15.75
2023-02-03T04:12:24.870Z,22.80
2023-02-03T04:18:32.010Z,12.95
2023-02-03T04:21:35.054Z,15.30
2023-02-03T04:24:39.174Z,10.90
2023-02-03T04:27:42.566Z,12.52
2023-02-03T04:30:46.667Z,10.40
2023-02-03T04:33:49.577Z,12.85
2023-02-03T04:36:53.007Z,11.07
2023-02-03T04:39:56.602Z,7.13
2023-02-03T04:42:59.907Z,9.45
2023-02-03T04:46:02.887Z,6.78
2023-02-03T04:49:07.009Z,3.33
2023-02-03T04:52:10.717Z,3.70
2023-02-03T04:55:13.614Z,4.30
2023-02-03T04:58:16.631Z,3.05
2023-02-03T05:01:20.378Z,5.45
2023-02-03T05:04:24.652Z,4.95
2023-02-03T05:07:28.652Z,4.25
2023-02-03T05:10:31.990Z,5.18
2023-02-03T05:13:35.121Z,4.65
2023-02-03T05:16:38.463Z,2.90
2023-02-03T05:19:41.517Z,4.65
2023-02-03T05:22:45.215Z,2.85
2023-02-03T05:25:49.666Z,3.15
2023-02-03T05:28:54.144Z,3.00
2023-02-03T05:31:58.425Z,3.53
2023-02-03T05:35:02.556Z,3.60
2023-02-03T05:38:06.331Z,2.83
2023-02-03T05:41:30.212Z,3.72
2023-02-03T05:44:34.195Z,1.77
2023-02-03T05:47:37.911Z,2.90
2023-02-03T05:50:41.901Z,3.00
2023-02-03T05:53:45.155Z,2.35
2023-02-03T05:56:49.116Z,3.28
2023-02-03T05:59:52.331Z,5.35
2023-02-03T06:02:58.662Z,2.90
2023-02-03T06:06:02.512Z,2.65
2023-02-03T06:09:08.620Z,2.80
2023-02-03T06:12:12.269Z,2.38
2023-02-03T06:15:16.952Z,1.60
2023-02-03T06:18:20.977Z,3.58
2023-02-03T06:21:24.925Z,3.10
2023-02-03T06:24:27.933Z,3.78
2023-02-03T06:27:32.233Z,2.92
2023-02-03T06:30:35.656Z,2.20
2023-02-03T06:33:39.709Z,3.28
2023-02-03T06:36:43.369Z,5.00
2023-02-03T06:39:46.670Z,3.17
2023-02-03T06:42:51.727Z,5.38
2023-02-03T06:45:55.898Z,2.72
2023-02-03T06:48:59.816Z,1.80
2023-02-03T06:52:03.144Z,2.90
2023-02-03T06:55:06.720Z,2.28
2023-02-03T06:58:10.753Z,2.72
2023-02-03T07:01:14.101Z,2.20
2023-02-03T07:04:17.413Z,2.05
2023-02-03T07:07:21.074Z,2.60
2023-02-03T07:10:25.073Z,2.53
2023-02-03T07:13:28.882Z,2.83
2023-02-03T07:16:33.623Z,2.67
2023-02-03T07:19:38.759Z,3.20
2023-02-03T07:22:44.708Z,3.03
2023-02-03T07:25:48.294Z,3.00
2023-02-03T07:28:53.386Z,2.58
2023-02-03T07:31:57.784Z,3.85
2023-02-03T07:35:01.883Z,1.63
2023-02-03T07:38:05.883Z,2.40
2023-02-03T07:41:09.708Z,2.95
2023-02-03T07:44:14.434Z,2.88
2023-02-03T07:47:18.128Z,2.92
2023-02-03T07:50:22.166Z,4.03
2023-02-03T07:53:25.887Z,2.80
2023-02-03T07:56:31.642Z,3.63
2023-02-03T07:59:34.950Z,3.22
2023-02-03T08:02:38.926Z,3.63
2023-02-03T08:05:41.949Z,2.15
2023-02-03T08:08:46.022Z,2.90
2023-02-03T08:11:49.336Z,4.50
2023-02-03T08:14:55.899Z,2.85
2023-02-03T08:17:59.282Z,2.97
2023-02-03T08:21:05.120Z,2.63
2023-02-03T08:24:08.528Z,3.45
2023-02-03T08:27:18.116Z,3.30
2023-02-03T08:30:21.484Z,4.55
2023-02-03T08:33:25.196Z,3.22
2023-02-03T08:36:28.912Z,3.70
2023-02-03T08:39:33.522Z,3.58
2023-02-03T08:42:37.241Z,3.50
2023-02-03T08:45:41.534Z,4.18
2023-02-03T08:48:44.809Z,3.08
2023-02-03T08:51:49.574Z,2.45
2023-02-03T08:54:53.196Z,3.15
2023-02-03T08:57:57.104Z,4.65
2023-02-03T09:01:15.980Z,5.78
2023-02-03T09:04:25.386Z,3.72
2023-02-03T09:07:29.498Z,4.65
2023-02-03T09:10:33.093Z,5.10
2023-02-03T09:13:37.194Z,8.82
2023-02-03T09:16:41.630Z,8.95
2023-02-03T09:19:45.293Z,11.52
2023-02-03T09:22:49.533Z,11.52
2023-02-03T09:25:53.289Z,13.30
2023-02-03T09:28:56.988Z,15.88
2023-02-03T09:32:00.779Z,10.75
2023-02-03T09:35:04.570Z,12.80
2023-02-03T09:38:08.549Z,12.90
2023-02-03T09:41:45.442Z,12.30
2023-02-03T09:48:26.616Z,11.32
2023-02-03T09:51:58.694Z,6.18
2023-02-03T09:55:11.297Z,7.80
2023-02-03T09:58:21.725Z,6.10
2023-02-03T10:01:30.248Z,5.88
2023-02-03T10:04:44.912Z,8.60
2023-02-03T10:08:15.233Z,8.18
2023-02-03T10:14:36.936Z,7.68
2023-02-03T10:17:48.250Z,6.35
2023-02-03T10:20:56.385Z,8.13
2023-02-03T10:24:02.072Z,5.35
2023-02-03T10:27:06.695Z,5.38
2023-02-03T10:30:22.959Z,7.07
2023-02-03T10:33:30.592Z,8.93
2023-02-03T10:36:46.641Z,6.03
2023-02-03T10:39:52.933Z,5.75
2023-02-03T10:43:15.394Z,6.35
2023-02-03T10:46:32.806Z,6.20
2023-02-03T10:49:36.532Z,6.68
2023-02-03T10:52:40.281Z,7.22
2023-02-03T10:55:45.034Z,9.98
2023-02-03T10:59:00.705Z,12.25
2023-02-03T11:02:22.968Z,10.98
2023-02-03T11:05:27.375Z,9.88
2023-02-03T11:08:32.109Z,7.40
2023-02-03T11:11:37.936Z,8.95
2023-02-03T11:14:53.418Z,10.98
2023-02-03T11:17:57.175Z,16.67
2023-02-03T11:21:00.791Z,8.23
2023-02-03T11:24:19.194Z,4.10
2023-02-03T11:27:24.722Z,5.10
2023-02-03T11:30:33.313Z,9.05
2023-02-03T11:33:36.698Z,10.32
2023-02-03T11:36:40.693Z,10.20
2023-02-03T11:39:43.954Z,8.88
2023-02-03T11:42:51.232Z,8.52
2023-02-03T11:46:00.510Z,8.27
2023-02-03T11:49:21.668Z,8.15
2023-02-03T11:53:01.861Z,9.90
2023-02-03T11:56:29.045Z,7.63
2023-02-03T11:59:37.601Z,5.85
2023-02-03T12:03:19.294Z,5.15
2023-02-03T12:06:31.822Z,5.80
2023-02-03T12:09:56.820Z,9.40
2023-02-03T12:13:08.726Z,9.10
2023-02-03T12:16:49.076Z,7.68
2023-02-03T12:20:07.896Z,12.07
2023-02-03T12:23:37.741Z,10.00
2023-02-03T12:26:55.954Z,11.43
2023-02-03T12:30:17.681Z,12.32
2023-02-03T12:33:28.301Z,10.75
2023-02-03T12:36:37.875Z,9.48
2023-02-03T12:39:54.986Z,13.90
2023-02-03T12:43:10.300Z,12.20
2023-02-03T12:46:22.294Z,7.03
2023-02-03T12:49:47.896Z,12.45
2023-02-03T12:53:06.785Z,8.85
2023-02-03T12:56:14.759Z,10.35
2023-02-03T12:59:24.525Z,8.85
2023-02-03T13:02:31.369Z,9.05
2023-02-03T13:06:10.604Z,8.30
2023-02-03T13:09:22.381Z,8.43
2023-02-03T13:12:39.018Z,6.40
2023-02-03T13:15:46.821Z,7.40
2023-02-03T13:19:08.524Z,11.27
2023-02-03T13:22:27.371Z,12.50
2023-02-03T13:25:42.823Z,12.95
2023-02-03T13:29:36.312Z,13.15
2023-02-03T13:33:03.712Z,9.25
2023-02-03T13:36:37.441Z,7.53
2023-02-03T13:40:02.730Z,11.02
2023-02-03T13:43:28.407Z,9.40
2023-02-03T13:46:41.362Z,12.73
2023-02-03T13:49:51.302Z,8.10
2023-02-03T13:53:07.801Z,14.52
2023-02-03T13:56:38.164Z,10.50
2023-02-03T13:59:44.355Z,9.38
2023-02-03T14:02:57.796Z,10.18
2023-02-03T14:06:02.293Z,14.82
2023-02-03T14:09:32.730Z,15.88
2023-02-03T14:12:38.246Z,12.93
2023-02-03T14:15:43.047Z,11.65
2023-02-03T14:18:46.949Z,18.83
2023-02-03T14:21:55.472Z,13.50
2023-02-03T14:25:06.665Z,16.13
2023-02-03T14:28:15.650Z,14.98
2023-02-03T14:31:28.966Z,13.82
2023-02-03T14:34:36.984Z,12.27
2023-02-03T14:37:41.625Z,11.65
2023-02-03T14:41:14.937Z,12.82
2023-02-03T14:44:20.821Z,13.30
2023-02-03T14:48:06.910Z,11.00
2023-02-03T14:51:09.899Z,11.45
2023-02-03T14:54:35.917Z,8.85
2023-02-03T14:57:49.698Z,9.32
2023-02-03T15:00:55.105Z,8.48
2023-02-03T15:04:13.951Z,9.55
2023-02-03T15:07:38.748Z,6.72
2023-02-03T15:10:43.716Z,7.72
2023-02-03T15:13:47.380Z,6.85
2023-02-03T15:17:03.440Z,8.85
2023-02-03T15:20:25.426Z,9.48
2023-02-03T15:23:39.834Z,7.70
2023-02-03T15:26:55.754Z,4.05
2023-02-03T15:29:59.830Z,7.70
2023-02-03T15:33:10.208Z,6.63
2023-02-03T15:36:24.469Z,8.75
2023-02-03T15:39:49.700Z,8.90
2023-02-03T15:43:04.752Z,4.10
2023-02-03T15:46:25.064Z,5.32
2023-02-03T15:49:34.047Z,7.70
2023-02-03T15:52:46.314Z,8.05
2023-02-03T15:55:53.660Z,8.23
2023-02-03T16:02:13.307Z,9.32
2023-02-03T16:05:29.268Z,8.73
2023-02-03T16:08:46.724Z,8.48
2023-02-03T16:11:50.755Z,7.30
2023-02-03T16:14:55.706Z,8.70
2023-02-03T16:17:59.273Z,7.40
2023-02-03T16:21:02.968Z,8.50
2023-02-03T16:24:07.434Z,8.93
2023-02-03T16:27:28.740Z,7.40
2023-02-03T16:30:50.299Z,5.63
2023-02-03T16:34:11.522Z,6.95
2023-02-03T16:37:45.611Z,5.47
2023-02-03T16:41:07.863Z,7.07
2023-02-03T16:44:31.187Z,8.98
2023-02-03T16:47:52.830Z,5.30
2023-02-03T16:50:59.767Z,8.52
2023-02-03T16:57:06.584Z,6.53
2023-02-03T17:00:13.622Z,6.80
2023-02-03T17:03:22.918Z,10.63
2023-02-03T17:06:25.920Z,7.28
2023-02-03T17:09:32.756Z,7.00
2023-02-03T17:12:38.071Z,8.02
2023-02-03T17:15:49.264Z,6.53
2023-02-03T17:18:52.923Z,6.63
2023-02-03T17:21:56.577Z,6.13
2023-02-03T17:24:59.474Z,7.43
2023-02-03T17:28:06.774Z,9.25
2023-02-03T17:31:17.413Z,6.45
2023-02-03T17:34:20.439Z,11.35
2023-02-03T17:37:23.477Z,10.18
2023-02-03T17:53:50.558Z,8.02
2023-02-03T17:56:53.613Z,9.43
2023-02-03T17:59:59.819Z,9.13
2023-02-03T18:03:02.830Z,6.97
2023-02-03T18:06:07.248Z,9.50
2023-02-03T18:09:14.555Z,9.98
2023-02-03T18:12:17.727Z,5.88
2023-02-03T18:15:20.815Z,7.97
2023-02-03T18:18:24.241Z,6.95
2023-02-03T18:21:27.609Z,9.52
2023-02-03T18:24:31.141Z,10.55
2023-02-03T18:27:34.641Z,8.38
2023-02-03T18:30:37.655Z,7.90
2023-02-03T18:33:41.820Z,9.30
2023-02-03T18:36:45.682Z,7.80
2023-02-03T18:39:49.265Z,9.05
2023-02-03T18:42:52.489Z,9.23
2023-02-03T18:45:56.106Z,6.85
2023-02-03T18:49:00.226Z,7.68
2023-02-03T18:52:05.058Z,9.82
2023-02-03T18:55:09.040Z,8.45
2023-02-03T18:58:14.109Z,7.07
2023-02-03T19:01:30.954Z,6.40
2023-02-03T19:04:34.798Z,4.90
2023-02-03T19:07:38.371Z,7.43
2023-02-03T19:10:41.339Z,8.25
2023-02-03T19:13:44.860Z,4.57
2023-02-03T19:16:50.957Z,4.85
2023-02-03T19:19:54.546Z,6.53
2023-02-03T19:22:58.168Z,7.03
2023-02-03T19:26:02.612Z,8.05
2023-02-03T19:29:06.161Z,6.30
2023-02-03T19:32:10.256Z,8.45
2023-02-03T19:35:14.209Z,7.53
2023-02-03T19:38:20.543Z,5.05
2023-02-03T19:41:26.420Z,5.28
2023-02-03T19:44:30.376Z,5.75
2023-02-03T19:47:34.302Z,3.78
2023-02-03T19:50:38.670Z,5.55
2023-02-03T19:53:45.038Z,3.78
2023-02-03T19:56:48.557Z,3.93
2023-02-03T19:59:51.949Z,4.10
2023-02-03T20:02:55.756Z,3.63
2023-02-03T20:06:00.111Z,6.47
2023-02-03T20:09:05.225Z,7.32
2023-02-03T20:12:08.336Z,7.53
2023-02-03T20:15:12.026Z,7.00
2023-02-03T20:18:15.259Z,7.05
2023-02-03T20:21:19.229Z,7.70
2023-02-03T20:24:22.833Z,6.28
2023-02-03T20:27:26.130Z,7.25
2023-02-03T20:30:29.991Z,7.60
2023-02-03T20:33:33.831Z,8.20
2023-02-03T20:36:37.786Z,6.75
2023-02-03T20:39:41.948Z,5.40
2023-02-03T20:42:44.979Z,6.03
2023-02-03T20:45:50.121Z,5.40
2023-02-03T20:48:53.108Z,6.25
2023-02-03T20:51:56.302Z,3.17
2023-02-03T20:54:59.240Z,3.95
2023-02-03T20:58:03.454Z,4.55
2023-02-03T21:01:16.030Z,7.45
2023-02-03T21:04:38.575Z,7.45
2023-02-03T21:07:42.136Z,8.20
2023-02-03T21:10:46.760Z,7.40
2023-02-03T21:13:50.463Z,10.93
2023-02-03T21:16:55.184Z,10.57
2023-02-03T21:19:58.155Z,13.82
2023-02-03T21:23:01.273Z,20.27
2023-02-03T21:26:20.458Z,20.67
2023-02-03T21:29:33.235Z,15.98
2023-02-03T21:32:41.603Z,14.23
2023-02-03T21:35:44.909Z,13.77
2023-02-03T21:38:56.848Z,13.00
2023-02-03T21:42:41.842Z,13.55
2023-02-03T21:45:45.326Z,13.13
2023-02-03T21:48:53.547Z,12.27
2023-02-03T21:51:57.121Z,12.80
2023-02-03T21:55:00.779Z,22.85
2023-02-03T21:58:31.342Z,30.75
2023-02-03T22:01:38.318Z,42.88
2023-02-03T22:04:41.954Z,50.08
2023-02-03T22:07:45.272Z,24.95
2023-02-03T22:10:48.772Z,16.98
2023-02-03T22:13:52.088Z,54.20
2023-02-03T22:16:55.737Z,22.98
2023-02-03T22:19:59.881Z,26.02
2023-02-03T22:23:03.295Z,48.78
2023-02-03T22:26:08.154Z,49.10
2023-02-03T22:29:11.099Z,15.52
2023-02-03T22:32:14.476Z,16.92
2023-02-03T22:35:17.453Z,14.38
2023-02-03T22:38:20.719Z,18.90
2023-02-03T22:41:24.436Z,43.42
2023-02-03T22:44:27.428Z,19.25
2023-02-03T22:47:31.335Z,30.67
2023-02-03T22:50:38.553Z,38.58
2023-02-03T22:53:41.622Z,30.70
2023-02-03T22:56:44.600Z,44.33
2023-02-03T22:59:47.751Z,31.83
2023-02-03T23:02:52.032Z,11.73
2023-02-03T23:05:56.983Z,9.25
2023-02-03T23:09:00.311Z,9.50
2023-02-03T23:12:03.288Z,10.43
2023-02-03T23:15:06.837Z,5.82
2023-02-03T23:18:10.509Z,6.40
2023-02-03T23:21:13.469Z,6.80
2023-02-03T23:24:17.086Z,8.18
2023-02-03T23:27:20.228Z,5.25
2023-02-03T23:30:23.239Z,6.05
2023-02-03T23:33:26.470Z,3.00
2023-02-03T23:36:30.275Z,5.25
2023-02-03T23:39:33.661Z,6.22
2023-02-03T23:42:36.764Z,6.40
2023-02-03T23:45:40.386Z,5.75
2023-02-03T23:48:43.752Z,5.32
2023-02-03T23:51:46.610Z,6.03
2023-02-03T23:54:50.294Z,4.55
2023-02-03T23:57:53.689Z,7.55
